Time,TemperatureF,DewpointF,PressureIn,WindDirection,WindDirectionDegrees,WindSpeedMPH,WindSpeedGustMPH,Humidity,HourlyPrecipIn,Conditions,Clouds,dailyrainin,SoftwareType,DateUTC
2013-03-24 00:02:00,47.5,46.4,29.71,ESE,105,4.6,4.6,96,0.06,-RA,FEW,0.06,WeatherDisplay:10.37,2013-03-24 06:02:00,
2013-03-24 00:07:00,47.6,46.5,29.71,ESE,118,1.1,0.0,96,0.05,-RA,FEW,0.06,WeatherDisplay:10.37,2013-03-24 06:07:00,
2013-03-24 00:12:00,47.6,46.5,29.71,East,79,2.3,2.3,96,0.06,-RA,FEW,0.07,WeatherDisplay:10.37,2013-03-24 06:12:00,
2013-03-24 00:17:00,47.6,46.5,29.71,ENE,78,0.0,0.0,96,0.07,-RA,FEW,0.08,WeatherDisplay:10.37,2013-03-24 06:17:00,
2013-03-24 00:22:00,47.6,46.5,29.70,East,98,3.5,3.5,96,0.06,-RA,FEW,0.08,WeatherDisplay:10.37,2013-03-24 06:22:00,
2013-03-24 00:27:00,47.6,46.5,29.69,ESE,114,2.3,2.3,96,0.07,-RA,FEW,0.09,WeatherDisplay:10.37,2013-03-24 06:27:00,
2013-03-24 00:32:00,47.7,46.6,29.69,ENE,75,6.9,6.9,96,0.08,-RA,FEW,0.10,WeatherDisplay:10.37,2013-03-24 06:32:00,
2013-03-24 00:37:00,47.7,46.6,29.69,NE,46,3.5,3.5,96,0.08,-RA,FEW,0.10,WeatherDisplay:10.37,2013-03-24 06:37:00,
2013-03-24 00:42:00,47.7,46.6,29.69,ENE,62,3.5,3.5,96,0.07,-RA,FEW,0.10,WeatherDisplay:10.37,2013-03-24 06:42:00,
2013-03-24 00:47:00,47.7,46.6,29.69,ENE,58,3.5,3.5,96,0.06,-RA,FEW,0.10,WeatherDisplay:10.37,2013-03-24 06:47:00,
2013-03-24 00:52:00,47.7,46.6,29.69,ENE,69,4.6,4.6,96,0.06,OVC,FEW,0.10,WeatherDisplay:10.37,2013-03-24 06:52:00,
2013-03-24 00:58:00,47.7,46.6,29.69,ENE,78,3.5,3.5,96,0.06,OVC,FEW,0.10,WeatherDisplay:10.37,2013-03-24 06:58:00,
2013-03-24 01:03:00,47.8,46.7,29.69,SE,139,3.5,3.5,96,0.04,-RA,FEW,0.10,WeatherDisplay:10.37,2013-03-24 07:03:00,
2013-03-24 01:08:00,47.8,46.7,29.68,ESE,113,1.1,1.1,96,0.04,-RA,FEW,0.10,WeatherDisplay:10.37,2013-03-24 07:08:00,
2013-03-24 01:13:00,47.8,46.7,29.68,East,95,2.3,2.3,96,0.03,-RA,FEW,0.10,WeatherDisplay:10.37,2013-03-24 07:13:00,
2013-03-24 01:18:00,47.8,46.7,29.69,East,80,0.0,0.0,96,0.02,-RA,FEW,0.10,WeatherDisplay:10.37,2013-03-24 07:18:00,
2013-03-24 01:23:00,47.8,46.7,29.68,East,80,0.0,0.0,96,0.02,-RA,FEW,0.10,WeatherDisplay:10.37,2013-03-24 07:23:00,
2013-03-24 01:28:00,47.9,46.8,29.67,ENE,78,1.1,1.1,96,0.02,-RA,FEW,0.11,WeatherDisplay:10.37,2013-03-24 07:28:00,
2013-03-24 01:33:00,47.8,46.7,29.65,NE,52,1.1,1.1,96,0.01,-DZ,FEW,0.11,WeatherDisplay:10.37,2013-03-24 07:33:00,
2013-03-24 01:38:00,47.9,46.8,29.65,NE,53,1.1,1.1,96,0.02,-DZ,FEW,0.12,WeatherDisplay:10.37,2013-03-24 07:38:00,
2013-03-24 01:43:00,47.9,46.8,29.64,ENE,59,0.0,0.0,96,0.02,-DZ,FEW,0.12,WeatherDisplay:10.37,2013-03-24 07:43:00,
2013-03-24 01:48:00,47.9,46.8,29.65,ENE,59,0.0,0.0,96,0.02,-DZ,FEW,0.12,WeatherDisplay:10.37,2013-03-24 07:48:00,
2013-03-24 01:53:00,47.8,46.7,29.65,ENE,59,0.0,0.0,96,0.02,OVC,FEW,0.12,WeatherDisplay:10.37,2013-03-24 07:53:00,
2013-03-24 01:58:00,47.8,46.7,29.65,NNW,345,0.0,0.1,96,0.02,OVC,FEW,0.12,WeatherDisplay:10.37,2013-03-24 07:58:00,
2013-03-24 02:03:00,47.8,46.7,29.65,North,355,1.1,1.1,96,0.02,-DZ,FEW,0.12,WeatherDisplay:10.37,2013-03-24 08:03:00,
2013-03-24 02:08:00,47.8,46.7,29.64,North,360,0.0,0.4,96,0.02,-DZ,FEW,0.12,WeatherDisplay:10.37,2013-03-24 08:08:00,
2013-03-24 02:13:00,47.8,46.7,29.63,North,360,2.3,2.3,96,0.02,-DZ,FEW,0.12,WeatherDisplay:10.37,2013-03-24 08:13:00,
2013-03-24 02:18:00,47.8,46.7,29.63,North,360,2.3,2.3,96,0.02,-DZ,FEW,0.12,WeatherDisplay:10.37,2013-03-24 08:18:00,
2013-03-24 02:23:00,47.8,46.7,29.63,NE,54,3.5,3.5,96,0.02,-DZ,FEW,0.12,WeatherDisplay:10.37,2013-03-24 08:23:00,
2013-03-24 02:28:00,47.8,46.7,29.63,NE,50,0.0,0.0,96,0.01,-DZ,FEW,0.12,WeatherDisplay:10.37,2013-03-24 08:28:00,
2013-03-24 02:33:00,47.8,46.7,29.64,NE,50,1.1,1.1,96,0.01,-DZ,FEW,0.12,WeatherDisplay:10.37,2013-03-24 08:33:00,
2013-03-24 02:38:00,47.8,46.7,29.63,NE,50,0.0,0.0,96,0.00,-DZ,FEW,0.12,WeatherDisplay:10.37,2013-03-24 08:38:00,
2013-03-24 02:43:00,47.9,46.8,29.63,NE,42,2.3,2.3,96,0.00,-DZ,FEW,0.12,WeatherDisplay:10.37,2013-03-24 08:43:00,
2013-03-24 02:48:00,47.9,46.8,29.63,NE,54,2.3,2.3,96,0.00,-DZ,FEW,0.12,WeatherDisplay:10.37,2013-03-24 08:48:00,
2013-03-24 02:53:00,47.8,46.7,29.63,North,350,2.3,2.3,96,0.00,-DZ,FEW,0.12,WeatherDisplay:10.37,2013-03-24 08:53:00,
2013-03-24 02:58:00,47.8,46.7,29.63,North,360,3.2,3.2,96,0.00,-DZ,FEW,0.12,WeatherDisplay:10.37,2013-03-24 08:58:00,
2013-03-24 03:03:00,47.5,46.4,29.63,North,5,4.6,4.6,96,0.00,OVC,FEW,0.12,WeatherDisplay:10.37,2013-03-24 09:03:00,
2013-03-24 03:09:00,47.2,46.1,29.62,ENE,65,5.8,5.8,96,0.00,OVC,FEW,0.12,WeatherDisplay:10.37,2013-03-24 09:09:00,
2013-03-24 03:14:00,47.0,45.9,29.62,NE,42,3.5,3.5,96,0.00,OVC,FEW,0.12,WeatherDisplay:10.37,2013-03-24 09:14:00,
2013-03-24 03:19:00,47.0,45.9,29.62,North,5,3.5,3.5,96,0.00,OVC,FEW,0.12,WeatherDisplay:10.37,2013-03-24 09:19:00,
2013-03-24 03:24:00,46.8,45.7,29.62,NE,43,5.8,5.8,96,0.00,OVC,FEW,0.12,WeatherDisplay:10.37,2013-03-24 09:24:00,
2013-03-24 03:29:00,46.8,45.7,29.62,East,88,2.3,2.3,96,0.00,OVC,FEW,0.12,WeatherDisplay:10.37,2013-03-24 09:29:00,
2013-03-24 03:34:00,46.7,45.6,29.63,NW,322,2.3,2.3,96,0.00,OVC,FEW,0.12,WeatherDisplay:10.37,2013-03-24 09:34:00,
2013-03-24 03:39:00,46.5,45.4,29.63,North,351,6.9,6.9,96,0.00,OVC,FEW,0.12,WeatherDisplay:10.37,2013-03-24 09:39:00,
2013-03-24 03:44:00,46.4,45.0,29.63,NE,49,3.5,3.5,95,0.00,OVC,FEW,0.12,WeatherDisplay:10.37,2013-03-24 09:44:00,
2013-03-24 03:49:00,46.4,45.0,29.63,NE,41,1.1,1.1,95,0.00,OVC,FEW,0.12,WeatherDisplay:10.37,2013-03-24 09:49:00,
2013-03-24 03:54:00,46.4,45.3,29.63,North,355,5.8,5.8,96,0.00,OVC,FEW,0.12,WeatherDisplay:10.37,2013-03-24 09:54:00,
2013-03-24 03:59:00,46.3,45.2,29.62,NNE,26,5.8,5.8,96,0.00,OVC,FEW,0.12,WeatherDisplay:10.37,2013-03-24 09:59:00,
2013-03-24 04:04:00,46.2,44.8,29.62,ENE,60,1.1,0.0,95,0.00,OVC,FEW,0.12,WeatherDisplay:10.37,2013-03-24 10:04:00,
2013-03-24 04:09:00,46.2,45.1,29.62,ENE,59,3.5,3.5,96,0.00,OVC,FEW,0.12,WeatherDisplay:10.37,2013-03-24 10:09:00,
2013-03-24 04:14:00,46.1,44.7,29.62,ENE,61,4.6,4.6,95,0.00,OVC,FEW,0.12,WeatherDisplay:10.37,2013-03-24 10:14:00,
2013-03-24 04:19:00,45.9,44.5,29.62,ENE,59,3.5,3.5,95,0.00,OVC,FEW,0.12,WeatherDisplay:10.37,2013-03-24 10:19:00,
2013-03-24 04:24:00,45.8,44.4,29.61,NE,40,3.5,3.5,95,0.00,OVC,FEW,0.12,WeatherDisplay:10.37,2013-03-24 10:24:00,
2013-03-24 04:29:00,45.7,44.4,29.61,NE,43,5.8,5.8,95,0.00,OVC,FEW,0.12,WeatherDisplay:10.37,2013-03-24 10:29:00,
2013-03-24 04:34:00,45.5,44.2,29.62,NNE,15,4.6,4.6,95,0.00,OVC,FEW,0.12,WeatherDisplay:10.37,2013-03-24 10:34:00,
2013-03-24 04:39:00,45.5,44.2,29.62,North,350,4.6,4.6,95,0.00,OVC,FEW,0.12,WeatherDisplay:10.37,2013-03-24 10:39:00,
2013-03-24 04:44:00,45.5,44.2,29.62,NNE,32,3.5,3.5,95,0.00,OVC,FEW,0.12,WeatherDisplay:10.37,2013-03-24 10:44:00,
2013-03-24 04:49:00,45.5,44.2,29.62,NNE,24,2.3,2.3,95,0.00,OVC,FEW,0.12,WeatherDisplay:10.37,2013-03-24 10:49:00,
2013-03-24 04:54:00,45.4,44.1,29.62,NE,53,1.1,1.1,95,0.00,-DZ,FEW,0.12,WeatherDisplay:10.37,2013-03-24 10:54:00,
2013-03-24 04:59:00,45.4,44.1,29.63,North,349,5.8,5.8,95,0.00,-DZ,FEW,0.12,WeatherDisplay:10.37,2013-03-24 10:59:00,
2013-03-24 05:04:00,45.3,44.0,29.63,NNE,15,1.1,1.1,95,0.00,OVC,FEW,0.12,WeatherDisplay:10.37,2013-03-24 11:04:00,
2013-03-24 05:09:00,45.3,44.0,29.63,NNE,17,1.1,0.0,95,0.00,OVC,FEW,0.12,WeatherDisplay:10.37,2013-03-24 11:09:00,
2013-03-24 05:14:00,45.3,44.0,29.63,NNE,29,3.5,3.5,95,0.00,OVC,FEW,0.12,WeatherDisplay:10.37,2013-03-24 11:14:00,
2013-03-24 05:19:00,45.2,43.9,29.63,NNE,24,4.6,4.6,95,0.00,OVC,FEW,0.12,WeatherDisplay:10.37,2013-03-24 11:19:00,
2013-03-24 05:24:00,45.1,43.8,29.62,North,11,0.0,0.0,95,0.00,OVC,FEW,0.12,WeatherDisplay:10.37,2013-03-24 11:24:00,
2013-03-24 05:29:00,44.9,43.3,29.63,NNE,12,4.6,4.6,94,0.00,OVC,FEW,0.12,WeatherDisplay:10.37,2013-03-24 11:29:00,
2013-03-24 05:34:00,44.9,43.3,29.63,North,355,3.5,3.5,94,0.00,OVC,FEW,0.12,WeatherDisplay:10.37,2013-03-24 11:34:00,
2013-03-24 05:39:00,44.8,43.2,29.63,NNW,339,4.6,4.6,94,0.00,OVC,FEW,0.12,WeatherDisplay:10.37,2013-03-24 11:39:00,
2013-03-24 05:44:00,44.7,43.1,29.63,North,9,5.4,5.4,94,0.00,OVC,FEW,0.12,WeatherDisplay:10.37,2013-03-24 11:44:00,
2013-03-24 05:49:00,44.6,43.0,29.64,North,5,4.6,4.6,94,0.00,OVC,FEW,0.12,WeatherDisplay:10.37,2013-03-24 11:49:00,
2013-03-24 05:54:00,44.6,43.0,29.64,NNW,347,4.6,4.6,94,0.00,OVC,FEW,0.12,WeatherDisplay:10.37,2013-03-24 11:54:00,
2013-03-24 05:59:00,44.5,42.9,29.64,North,9,3.5,3.5,94,0.00,OVC,FEW,0.12,WeatherDisplay:10.37,2013-03-24 11:59:00,
2013-03-24 06:04:00,44.5,42.9,29.64,NW,318,3.5,3.5,94,0.00,OVC,FEW,0.12,WeatherDisplay:10.37,2013-03-24 12:04:00,
2013-03-24 06:09:00,44.5,42.9,29.63,North,5,2.3,2.3,94,0.00,OVC,FEW,0.12,WeatherDisplay:10.37,2013-03-24 12:09:00,
2013-03-24 06:14:00,44.3,42.7,29.62,North,5,4.6,4.6,94,0.00,OVC,FEW,0.12,WeatherDisplay:10.37,2013-03-24 12:14:00,
2013-03-24 06:20:00,44.1,42.5,29.62,North,5,3.5,3.5,94,0.00,OVC,FEW,0.12,WeatherDisplay:10.37,2013-03-24 12:20:00,
2013-03-24 06:25:00,44.0,42.4,29.63,NW,306,8.1,8.1,94,0.00,OVC,FEW,0.12,WeatherDisplay:10.37,2013-03-24 12:25:00,
2013-03-24 06:30:00,43.9,42.3,29.63,North,5,5.8,5.8,94,0.00,OVC,FEW,0.12,WeatherDisplay:10.37,2013-03-24 12:30:00,
2013-03-24 06:35:00,43.7,42.4,29.62,NNE,12,4.6,4.7,95,0.00,OVC,FEW,0.12,WeatherDisplay:10.37,2013-03-24 12:35:00,
2013-03-24 06:40:00,43.6,42.3,29.63,North,5,3.5,3.5,95,0.00,OVC,FEW,0.12,WeatherDisplay:10.37,2013-03-24 12:40:00,
2013-03-24 06:45:00,43.4,42.1,29.63,NNE,13,2.3,2.3,95,0.00,OVC,FEW,0.12,WeatherDisplay:10.37,2013-03-24 12:45:00,
2013-03-24 06:50:00,43.3,42.0,29.63,North,355,4.6,4.6,95,0.00,OVC,FEW,0.12,WeatherDisplay:10.37,2013-03-24 12:50:00,
2013-03-24 06:55:00,43.0,41.7,29.62,NNE,20,6.9,6.9,95,0.00,OVC,FEW,0.12,WeatherDisplay:10.37,2013-03-24 12:55:00,
2013-03-24 07:00:00,42.9,41.6,29.63,North,11,3.5,3.5,95,0.00,OVC,FEW,0.12,WeatherDisplay:10.37,2013-03-24 13:00:00,
2013-03-24 07:05:00,42.7,41.4,29.62,North,360,4.6,4.6,95,0.00,OVC,FEW,0.12,WeatherDisplay:10.37,2013-03-24 13:05:00,
2013-03-24 07:10:00,42.6,41.3,29.62,NE,39,5.8,5.8,95,0.00,OVC,FEW,0.12,WeatherDisplay:10.37,2013-03-24 13:10:00,
2013-03-24 07:15:00,42.6,41.5,29.62,ENE,69,2.3,2.3,96,0.00,OVC,FEW,0.12,WeatherDisplay:10.37,2013-03-24 13:15:00,
2013-03-24 07:20:00,42.6,41.5,29.62,ENE,70,5.8,5.8,96,0.00,-DZ,FEW,0.12,WeatherDisplay:10.37,2013-03-24 13:20:00,
2013-03-24 07:25:00,42.5,41.2,29.62,NNW,333,3.5,3.5,95,0.00,-DZ,FEW,0.12,WeatherDisplay:10.37,2013-03-24 13:25:00,
2013-03-24 07:30:00,42.3,41.0,29.63,North,5,6.9,6.9,95,0.00,-DZ,FEW,0.12,WeatherDisplay:10.37,2013-03-24 13:30:00,
2013-03-24 07:35:00,42.2,40.9,29.63,North,5,4.6,4.6,95,0.00,OVC,FEW,0.12,WeatherDisplay:10.37,2013-03-24 13:35:00,
2013-03-24 07:40:00,42.2,40.9,29.63,NNW,342,3.5,3.5,95,0.00,OVC,FEW,0.12,WeatherDisplay:10.37,2013-03-24 13:40:00,
2013-03-24 07:45:00,42.2,40.9,29.63,NNE,22,4.6,4.6,95,0.00,OVC,FEW,0.12,WeatherDisplay:10.37,2013-03-24 13:45:00,
2013-03-24 07:50:00,42.2,40.9,29.63,NE,41,0.0,0.0,95,0.00,OVC,FEW,0.12,WeatherDisplay:10.37,2013-03-24 13:50:00,
2013-03-24 07:55:00,42.2,40.9,29.64,NNW,345,3.5,3.5,95,0.00,OVC,FEW,0.12,WeatherDisplay:10.37,2013-03-24 13:55:00,
2013-03-24 08:00:00,42.2,41.1,29.64,NNW,341,1.1,1.1,96,0.00,OVC,FEW,0.12,WeatherDisplay:10.37,2013-03-24 14:00:00,
2013-03-24 08:05:00,42.3,41.2,29.63,East,93,2.3,2.3,96,0.00,OVC,FEW,0.12,WeatherDisplay:10.37,2013-03-24 14:05:00,
2013-03-24 08:10:00,42.3,41.2,29.63,ENE,71,3.5,3.5,96,0.00,OVC,FEW,0.12,WeatherDisplay:10.37,2013-03-24 14:10:00,
2013-03-24 08:15:00,42.3,41.2,29.63,East,87,0.0,0.0,96,0.00,OVC,FEW,0.12,WeatherDisplay:10.37,2013-03-24 14:15:00,
2013-03-24 08:20:00,42.3,41.2,29.61,East,81,3.5,3.5,96,0.00,OVC,FEW,0.12,WeatherDisplay:10.37,2013-03-24 14:20:00,
2013-03-24 08:25:00,42.3,41.2,29.59,East,86,3.5,3.5,96,0.00,OVC,FEW,0.12,WeatherDisplay:10.37,2013-03-24 14:25:00,
2013-03-24 08:30:00,42.4,41.3,29.59,SSE,160,2.3,2.3,96,0.00,OVC,FEW,0.12,WeatherDisplay:10.37,2013-03-24 14:30:00,
2013-03-24 08:35:00,42.4,41.3,29.58,SSE,154,2.3,2.3,96,0.00,OVC,FEW,0.12,WeatherDisplay:10.37,2013-03-24 14:35:00,
2013-03-24 08:40:00,42.4,41.3,29.57,ENE,76,3.5,3.5,96,0.00,OVC,FEW,0.12,WeatherDisplay:10.37,2013-03-24 14:40:00,
2013-03-24 08:45:00,42.3,41.2,29.56,ENE,57,2.3,0.0,96,0.00,OVC,FEW,0.12,WeatherDisplay:10.37,2013-03-24 14:45:00,
2013-03-24 08:50:00,42.4,41.3,29.51,ENE,59,10.7,10.7,96,0.00,OVC,FEW,0.12,WeatherDisplay:10.37,2013-03-24 14:50:00,
2013-03-24 08:55:00,42.4,41.6,29.48,ESE,107,6.9,6.9,97,0.00,OVC,FEW,0.12,WeatherDisplay:10.37,2013-03-24 14:55:00,
2013-03-24 09:00:00,42.5,41.7,29.47,ENE,67,12.7,12.7,97,0.00,OVC,FEW,0.12,WeatherDisplay:10.37,2013-03-24 15:00:00,
2013-03-24 09:05:00,42.7,41.9,29.48,ENE,64,4.6,4.6,97,0.00,OVC,FEW,0.12,WeatherDisplay:10.37,2013-03-24 15:05:00,
2013-03-24 09:10:00,42.7,41.9,29.48,ESE,123,9.2,9.2,97,0.00,OVC,FEW,0.12,WeatherDisplay:10.37,2013-03-24 15:10:00,
2013-03-24 09:15:00,43.1,42.3,29.47,SE,140,9.2,9.2,97,0.00,OVC,FEW,0.12,WeatherDisplay:10.37,2013-03-24 15:15:00,
2013-03-24 09:20:00,43.5,42.7,29.48,South,182,5.8,5.8,97,0.00,OVC,FEW,0.12,WeatherDisplay:10.37,2013-03-24 15:20:00,
2013-03-24 09:25:00,44.0,43.2,29.47,East,101,8.1,8.1,97,0.00,OVC,FEW,0.12,WeatherDisplay:10.37,2013-03-24 15:25:00,
2013-03-24 09:30:00,44.4,43.6,29.47,ESE,123,5.8,5.8,97,0.00,OVC,FEW,0.12,WeatherDisplay:10.37,2013-03-24 15:30:00,
2013-03-24 09:35:00,44.7,43.9,29.48,ESE,123,8.1,8.1,97,0.00,OVC,FEW,0.12,WeatherDisplay:10.37,2013-03-24 15:35:00,
2013-03-24 09:40:00,45.1,44.3,29.48,SE,126,5.8,5.9,97,0.00,OVC,FEW,0.12,WeatherDisplay:10.37,2013-03-24 15:40:00,
2013-03-24 09:45:00,45.5,44.7,29.48,SSE,163,5.8,5.8,97,0.00,OVC,FEW,0.12,WeatherDisplay:10.37,2013-03-24 15:45:00,
2013-03-24 09:50:00,45.8,45.0,29.49,ESE,121,5.4,5.4,97,0.00,OVC,FEW,0.12,WeatherDisplay:10.37,2013-03-24 15:50:00,
2013-03-24 09:55:00,45.8,44.7,29.50,SSW,193,3.5,3.5,96,0.00,OVC,FEW,0.12,WeatherDisplay:10.37,2013-03-24 15:55:00,
2013-03-24 10:00:00,45.8,44.4,29.52,SSW,195,8.1,8.1,95,0.00,OVC,FEW,0.12,WeatherDisplay:10.37,2013-03-24 16:00:00,
2013-03-24 10:05:00,45.7,44.4,29.52,SW,215,5.8,5.8,95,0.00,OVC,FEW,0.12,WeatherDisplay:10.37,2013-03-24 16:05:00,
2013-03-24 10:10:00,45.7,44.4,29.52,West,261,3.5,3.5,95,0.00,OVC,FEW,0.12,WeatherDisplay:10.37,2013-03-24 16:10:00,
2013-03-24 10:15:00,45.7,44.4,29.50,SSW,208,2.3,2.3,95,0.00,OVC,FEW,0.12,WeatherDisplay:10.37,2013-03-24 16:15:00,
2013-03-24 10:20:00,45.7,44.4,29.49,SSW,208,0.0,0.0,95,0.00,OVC,FEW,0.12,WeatherDisplay:10.37,2013-03-24 16:20:00,
2013-03-24 10:25:00,45.7,44.4,29.49,SSW,208,1.1,0.0,95,0.00,OVC,FEW,0.12,WeatherDisplay:10.37,2013-03-24 16:25:00,
2013-03-24 10:30:00,45.8,44.4,29.49,SSW,208,0.0,0.4,95,0.00,OVC,FEW,0.12,WeatherDisplay:10.37,2013-03-24 16:30:00,
2013-03-24 10:35:00,45.8,44.4,29.49,SSW,208,1.1,1.1,95,0.00,OVC,FEW,0.12,WeatherDisplay:10.37,2013-03-24 16:35:00,
2013-03-24 10:40:00,45.8,44.4,29.48,East,79,2.3,2.3,95,0.00,OVC,FEW,0.13,WeatherDisplay:10.37,2013-03-24 16:40:00,
2013-03-24 10:45:00,45.8,44.4,29.49,WNW,293,2.3,2.3,95,0.04,RA,FEW,0.16,WeatherDisplay:10.37,2013-03-24 16:45:00,
2013-03-24 10:50:00,45.6,44.5,29.50,North,349,8.1,8.1,96,0.06,RA,FEW,0.18,WeatherDisplay:10.37,2013-03-24 16:50:00,
2013-03-24 10:55:00,45.5,44.4,29.50,WNW,294,5.8,5.8,96,0.06,RA,FEW,0.18,WeatherDisplay:10.37,2013-03-24 16:55:00,
2013-03-24 11:01:00,45.3,44.2,29.50,NW,304,6.9,6.9,96,0.14,RA,FEW,0.30,WeatherDisplay:10.37,2013-03-24 17:01:00,
2013-03-24 11:06:00,44.5,43.2,29.50,WNW,294,5.8,5.8,95,0.25,RA,FEW,0.38,WeatherDisplay:10.37,2013-03-24 17:06:00,
2013-03-24 11:11:00,44.4,43.3,29.50,WNW,300,4.6,4.6,96,0.26,RA,FEW,0.38,WeatherDisplay:10.37,2013-03-24 17:11:00,
2013-03-24 11:16:00,44.3,43.2,29.50,WNW,290,5.8,5.8,96,0.26,RA,FEW,0.39,WeatherDisplay:10.37,2013-03-24 17:16:00,
2013-03-24 11:21:00,44.4,43.3,29.49,NW,304,6.9,6.9,96,0.27,RA,FEW,0.40,WeatherDisplay:10.37,2013-03-24 17:21:00,
2013-03-24 11:26:00,44.5,43.7,29.49,WNW,298,2.3,2.3,97,0.28,RA,FEW,0.40,WeatherDisplay:10.37,2013-03-24 17:26:00,
2013-03-24 11:31:00,44.7,43.9,29.49,WNW,290,2.3,2.3,97,0.28,OVC,FEW,0.40,WeatherDisplay:10.37,2013-03-24 17:31:00,
2013-03-24 11:36:00,44.8,44.0,29.49,WNW,290,0.0,0.0,97,0.29,RA,FEW,0.41,WeatherDisplay:10.37,2013-03-24 17:36:00,
2013-03-24 11:41:00,44.9,44.1,29.49,WNW,290,0.0,0.0,97,0.29,RA,FEW,0.42,WeatherDisplay:10.37,2013-03-24 17:41:00,
2013-03-24 11:46:00,44.9,44.1,29.49,WNW,292,2.3,2.3,97,0.26,RA,FEW,0.43,WeatherDisplay:10.37,2013-03-24 17:46:00,
2013-03-24 11:51:00,45.0,44.2,29.49,WNW,303,2.3,2.3,97,0.26,RA,FEW,0.44,WeatherDisplay:10.37,2013-03-24 17:51:00,
2013-03-24 11:56:00,45.1,44.3,29.49,WSW,252,3.5,3.5,97,0.27,RA,FEW,0.45,WeatherDisplay:10.37,2013-03-24 17:56:00,
2013-03-24 12:01:00,45.3,44.5,29.48,West,273,3.5,3.5,97,0.15,-DZ,FEW,0.45,WeatherDisplay:10.37,2013-03-24 18:01:00,
2013-03-24 12:06:00,45.7,44.9,29.48,West,274,2.3,2.3,97,0.07,-DZ,FEW,0.45,WeatherDisplay:10.37,2013-03-24 18:06:00,
2013-03-24 12:11:00,46.0,45.2,29.48,WSW,256,3.5,3.5,97,0.08,-DZ,FEW,0.46,WeatherDisplay:10.37,2013-03-24 18:11:00,
2013-03-24 12:16:00,46.2,45.7,29.49,WSW,248,3.5,3.5,98,0.07,-DZ,FEW,0.46,WeatherDisplay:10.37,2013-03-24 18:16:00,
2013-03-24 12:21:00,46.6,46.1,29.48,WSW,246,6.9,6.9,98,0.08,-DZ,FEW,0.49,WeatherDisplay:10.37,2013-03-24 18:21:00,
2013-03-24 12:26:00,47.3,46.8,29.48,WSW,245,8.1,8.1,98,0.09,-DZ,FEW,0.49,WeatherDisplay:10.37,2013-03-24 18:26:00,
2013-03-24 12:32:00,47.8,47.3,29.48,WSW,253,8.1,8.1,98,0.10,-RA,FEW,0.50,WeatherDisplay:10.37,2013-03-24 18:32:00,
2013-03-24 12:37:00,48.0,47.5,29.49,WSW,258,12.7,12.7,98,0.09,-RA,FEW,0.50,WeatherDisplay:10.37,2013-03-24 18:37:00,
2013-03-24 12:42:00,48.1,46.7,29.49,WSW,242,15.0,15.0,95,0.08,-RA,FEW,0.50,WeatherDisplay:10.37,2013-03-24 18:42:00,
2013-03-24 12:47:00,48.1,46.2,29.49,WSW,256,10.4,10.4,93,0.06,-RA,FEW,0.50,WeatherDisplay:10.37,2013-03-24 18:47:00,
2013-03-24 12:52:00,47.8,45.6,29.49,WSW,248,17.3,17.3,92,0.07,RA,FEW,0.51,WeatherDisplay:10.37,2013-03-24 18:52:00,
2013-03-24 12:57:00,47.6,45.1,29.50,West,261,24.2,24.2,91,0.06,RA,FEW,0.51,WeatherDisplay:10.37,2013-03-24 18:57:00,
2013-03-24 13:02:00,47.5,44.7,29.49,WSW,246,19.6,19.6,90,0.06,-RA,FEW,0.51,WeatherDisplay:10.37,2013-03-24 19:02:00,
2013-03-24 13:08:00,47.4,44.6,29.49,West,269,12.7,12.7,90,0.06,-RA,FEW,0.51,WeatherDisplay:10.37,2013-03-24 19:08:00,
2013-03-24 13:13:00,47.3,44.5,29.50,WSW,255,16.1,16.1,90,0.06,-RA,FEW,0.52,WeatherDisplay:10.37,2013-03-24 19:13:00,
2013-03-24 13:18:00,47.5,45.0,29.49,West,269,12.7,12.7,91,0.06,RA,FEW,0.52,WeatherDisplay:10.37,2013-03-24 19:18:00,
2013-03-24 13:23:00,48.1,45.3,29.49,WNW,288,12.7,12.7,90,0.03,OVC,FEW,0.52,WeatherDisplay:10.37,2013-03-24 19:23:00,
2013-03-24 13:28:00,48.9,45.8,29.48,SSW,212,9.2,9.2,89,0.03,OVC,FEW,0.52,WeatherDisplay:10.37,2013-03-24 19:28:00,
2013-03-24 13:33:00,49.4,45.7,29.49,SSE,165,11.5,11.5,87,0.02,OVC,FEW,0.52,WeatherDisplay:10.37,2013-03-24 19:33:00,
2013-03-24 13:38:00,49.5,45.5,29.49,WSW,249,11.5,11.5,86,0.02,OVC,FEW,0.52,WeatherDisplay:10.37,2013-03-24 19:38:00,
2013-03-24 13:43:00,49.4,45.4,29.49,West,278,9.2,9.2,86,0.02,OVC,FEW,0.52,WeatherDisplay:10.37,2013-03-24 19:43:00,
2013-03-24 13:48:00,49.0,44.4,29.48,West,275,8.6,8.6,84,0.02,OVC,FEW,0.52,WeatherDisplay:10.37,2013-03-24 19:48:00,
2013-03-24 13:53:00,48.8,44.8,29.48,WSW,252,4.6,4.6,86,0.01,-DZ,FEW,0.52,WeatherDisplay:10.37,2013-03-24 19:53:00,
2013-03-24 13:58:00,48.8,44.5,29.48,WSW,246,12.7,12.7,85,0.01,-DZ,FEW,0.52,WeatherDisplay:10.37,2013-03-24 19:58:00,
2013-03-24 14:03:00,48.8,44.8,29.48,NW,312,5.8,5.8,86,0.01,BKN,FEW,0.52,WeatherDisplay:10.37,2013-03-24 20:03:00,
2013-03-24 14:08:00,48.8,44.8,29.48,South,185,4.6,4.6,86,0.01,BKN,FEW,0.52,WeatherDisplay:10.37,2013-03-24 20:08:00,
2013-03-24 14:13:00,48.7,45.0,29.48,WNW,296,5.4,5.4,87,0.00,BKN,FEW,0.52,WeatherDisplay:10.37,2013-03-24 20:13:00,
2013-03-24 14:18:00,48.6,44.6,29.48,West,281,8.1,8.1,86,0.00,BKN,FEW,0.52,WeatherDisplay:10.37,2013-03-24 20:18:00,
2013-03-24 14:23:00,48.6,44.6,29.48,WSW,243,5.8,5.8,86,0.00,BKN,FEW,0.52,WeatherDisplay:10.37,2013-03-24 20:23:00,
2013-03-24 14:28:00,48.7,44.7,29.48,NNW,330,5.8,5.8,86,0.00,BKN,FEW,0.52,WeatherDisplay:10.37,2013-03-24 20:28:00,
2013-03-24 14:33:00,48.7,44.1,29.48,WSW,243,11.5,11.5,84,0.00,BKN,FEW,0.52,WeatherDisplay:10.37,2013-03-24 20:33:00,
2013-03-24 14:38:00,48.7,43.5,29.49,SW,217,11.5,11.5,82,0.00,BKN,FEW,0.52,WeatherDisplay:10.37,2013-03-24 20:38:00,
2013-03-24 14:43:00,48.5,42.3,29.50,SSW,212,17.3,17.3,79,0.00,BKN,FEW,0.52,WeatherDisplay:10.37,2013-03-24 20:43:00,
2013-03-24 14:48:00,48.3,42.4,29.50,WSW,250,15.0,15.0,80,0.00,BKN,FEW,0.52,WeatherDisplay:10.37,2013-03-24 20:48:00,
2013-03-24 14:53:00,47.9,41.7,29.51,West,277,20.7,20.7,79,0.00,BKN,FEW,0.52,WeatherDisplay:10.37,2013-03-24 20:53:00,
2013-03-24 14:58:00,47.3,41.8,29.51,WNW,290,8.1,8.1,81,0.00,BKN,FEW,0.52,WeatherDisplay:10.37,2013-03-24 20:58:00,
2013-03-24 15:03:00,46.9,41.4,29.51,SW,234,12.7,12.7,81,0.00,OVC,FEW,0.52,WeatherDisplay:10.37,2013-03-24 21:03:00,
2013-03-24 15:08:00,46.0,40.5,29.52,NW,309,15.0,15.0,81,0.00,OVC,FEW,0.52,WeatherDisplay:10.37,2013-03-24 21:08:00,
2013-03-24 15:13:00,45.5,40.3,29.52,WNW,298,12.7,12.7,82,0.00,OVC,FEW,0.52,WeatherDisplay:10.37,2013-03-24 21:13:00,
2013-03-24 15:18:00,45.2,40.7,29.52,West,271,6.9,6.9,84,0.00,OVC,FEW,0.52,WeatherDisplay:10.37,2013-03-24 21:18:00,
2013-03-24 15:23:00,45.1,39.6,29.52,SSW,210,12.7,12.7,81,0.00,OVC,FEW,0.52,WeatherDisplay:10.37,2013-03-24 21:23:00,
2013-03-24 15:28:00,45.0,39.2,29.52,WNW,283,12.7,12.7,80,0.00,OVC,FEW,0.52,WeatherDisplay:10.37,2013-03-24 21:28:00,
2013-03-24 15:33:00,44.8,39.0,29.52,SSW,209,17.3,17.3,80,0.00,OVC,FEW,0.52,WeatherDisplay:10.37,2013-03-24 21:33:00,
2013-03-24 15:38:00,44.5,39.0,29.52,West,270,9.6,9.6,81,0.00,-DZ,FEW,0.52,WeatherDisplay:10.37,2013-03-24 21:38:00,
2013-03-24 15:43:00,44.3,38.8,29.53,SW,215,19.6,19.6,81,0.00,-DZ,FEW,0.52,WeatherDisplay:10.37,2013-03-24 21:43:00,
2013-03-24 15:48:00,44.1,39.0,29.53,WSW,255,8.1,8.1,82,0.00,-DZ,FEW,0.52,WeatherDisplay:10.37,2013-03-24 21:48:00,
2013-03-24 15:53:00,44.0,38.9,29.52,WSW,240,15.0,15.0,82,0.00,-DZ,FEW,0.52,WeatherDisplay:10.37,2013-03-24 21:53:00,
2013-03-24 15:58:00,44.0,38.5,29.53,SW,229,9.2,9.2,81,0.00,-DZ,FEW,0.52,WeatherDisplay:10.37,2013-03-24 21:58:00,
2013-03-24 16:03:00,43.9,38.1,29.53,West,259,19.6,19.6,80,0.00,OVC,FEW,0.52,WeatherDisplay:10.37,2013-03-24 22:03:00,
2013-03-24 16:08:00,43.8,38.0,29.53,WSW,244,15.0,15.0,80,0.00,OVC,FEW,0.52,WeatherDisplay:10.37,2013-03-24 22:08:00,
2013-03-24 16:13:00,43.8,37.7,29.53,WSW,247,13.8,13.8,79,0.00,OVC,FEW,0.52,WeatherDisplay:10.37,2013-03-24 22:13:00,
2013-03-24 16:19:00,43.7,37.6,29.53,SSE,157,11.5,11.5,79,0.00,OVC,FEW,0.52,WeatherDisplay:10.37,2013-03-24 22:19:00,
2013-03-24 16:24:00,43.7,37.6,29.54,SSW,194,15.0,15.0,79,0.00,OVC,FEW,0.52,WeatherDisplay:10.37,2013-03-24 22:24:00,
2013-03-24 16:29:00,43.7,37.3,29.53,SW,229,9.2,9.2,78,0.00,OVC,FEW,0.52,WeatherDisplay:10.37,2013-03-24 22:29:00,
2013-03-24 16:34:00,43.7,37.3,29.54,SW,228,16.1,16.1,78,0.00,OVC,FEW,0.52,WeatherDisplay:10.37,2013-03-24 22:34:00,
2013-03-24 16:39:00,43.6,37.2,29.54,NW,317,11.5,11.5,78,0.00,OVC,FEW,0.52,WeatherDisplay:10.37,2013-03-24 22:39:00,
2013-03-24 16:44:00,43.4,37.3,29.54,WSW,250,10.4,10.4,79,0.00,OVC,FEW,0.52,WeatherDisplay:10.37,2013-03-24 22:44:00,
2013-03-24 16:49:00,43.2,37.1,29.54,South,176,12.7,12.7,79,0.00,OVC,FEW,0.52,WeatherDisplay:10.37,2013-03-24 22:49:00,
2013-03-24 16:54:00,42.9,37.2,29.55,SW,227,8.1,8.1,80,0.00,OVC,FEW,0.52,WeatherDisplay:10.37,2013-03-24 22:54:00,
2013-03-24 16:59:00,42.6,37.8,29.55,SW,225,8.1,8.1,83,0.00,OVC,FEW,0.52,WeatherDisplay:10.37,2013-03-24 22:59:00,
2013-03-24 17:04:00,42.1,37.9,29.56,SW,217,8.1,8.1,85,0.00,OVC,FEW,0.52,WeatherDisplay:10.37,2013-03-24 23:04:00,
2013-03-24 17:09:00,41.5,37.6,29.57,NNW,336,18.4,18.4,86,0.02,RA,FEW,0.54,WeatherDisplay:10.37,2013-03-24 23:09:00,
2013-03-24 17:14:00,39.9,36.6,29.58,WNW,285,19.6,19.6,88,0.04,RA,FEW,0.56,WeatherDisplay:10.37,2013-03-24 23:14:00,
2013-03-24 17:19:00,39.4,36.7,29.58,West,279,8.1,8.1,90,0.04,RA,FEW,0.56,WeatherDisplay:10.37,2013-03-24 23:19:00,
2013-03-24 17:24:00,39.3,36.6,29.59,West,267,13.8,13.8,90,0.04,OVC,FEW,0.56,WeatherDisplay:10.37,2013-03-24 23:24:00,
2013-03-24 17:29:00,39.2,36.2,29.60,West,259,17.3,17.3,89,0.04,OVC,FEW,0.56,WeatherDisplay:10.37,2013-03-24 23:29:00,
2013-03-24 17:34:00,39.1,36.4,29.60,West,279,15.0,15.0,90,0.04,OVC,FEW,0.56,WeatherDisplay:10.37,2013-03-24 23:34:00,
2013-03-24 17:39:00,39.0,36.3,29.61,WNW,302,9.2,9.2,90,0.04,-DZ,FEW,0.56,WeatherDisplay:10.37,2013-03-24 23:39:00,
2013-03-24 17:44:00,38.8,36.1,29.61,West,279,13.9,13.9,90,0.04,-DZ,FEW,0.56,WeatherDisplay:10.37,2013-03-24 23:44:00,
2013-03-24 17:49:00,38.6,35.6,29.62,SW,228,9.2,9.2,89,0.04,-DZ,FEW,0.56,WeatherDisplay:10.37,2013-03-24 23:49:00,
2013-03-24 17:54:00,38.2,35.2,29.63,West,259,15.0,15.0,89,0.04,-DZ,FEW,0.56,WeatherDisplay:10.37,2013-03-24 23:54:00,
2013-03-24 17:59:00,37.9,35.2,29.63,WSW,250,13.8,13.8,90,0.05,-DZ,FEW,0.57,WeatherDisplay:10.37,2013-03-24 23:59:00,
2013-03-24 18:04:00,37.9,35.5,29.63,SSW,195,9.2,9.2,91,0.05,-DZ,FEW,0.57,WeatherDisplay:10.37,2013-03-25 00:04:00,
2013-03-24 18:09:00,37.7,34.5,29.63,West,263,15.0,15.0,88,0.03,-DZ,FEW,0.57,WeatherDisplay:10.37,2013-03-25 00:09:00,
2013-03-24 18:14:00,37.5,34.0,29.64,WNW,288,12.7,12.7,87,0.01,-DZ,FEW,0.57,WeatherDisplay:10.37,2013-03-25 00:14:00,
2013-03-24 18:19:00,37.4,33.9,29.64,WNW,285,15.0,15.0,87,0.01,-DZ,FEW,0.57,WeatherDisplay:10.37,2013-03-25 00:19:00,
2013-03-24 18:24:00,37.4,33.9,29.65,SW,236,11.5,11.5,87,0.01,-DZ,FEW,0.57,WeatherDisplay:10.37,2013-03-25 00:24:00,
2013-03-24 18:29:00,37.4,33.6,29.65,West,268,12.7,12.7,86,0.01,-DZ,FEW,0.57,WeatherDisplay:10.37,2013-03-25 00:29:00,
2013-03-24 18:34:00,37.4,33.6,29.65,WNW,289,8.1,9.9,86,0.01,-DZ,FEW,0.57,WeatherDisplay:10.37,2013-03-25 00:34:00,
2013-03-24 18:39:00,37.5,33.7,29.66,WSW,240,9.2,9.2,86,0.01,-DZ,FEW,0.57,WeatherDisplay:10.37,2013-03-25 00:39:00,
2013-03-24 18:44:00,37.5,33.4,29.66,WSW,244,13.8,13.8,85,0.01,-DZ,FEW,0.57,WeatherDisplay:10.37,2013-03-25 00:44:00,
2013-03-24 18:49:00,37.6,33.2,29.66,WSW,246,15.0,15.0,84,0.01,-DZ,FEW,0.57,WeatherDisplay:10.37,2013-03-25 00:49:00,
2013-03-24 18:54:00,37.6,33.5,29.67,West,277,10.4,10.4,85,0.01,OVC,FEW,0.57,WeatherDisplay:10.37,2013-03-25 00:54:00,
2013-03-24 18:59:00,37.6,33.2,29.67,West,263,12.7,12.7,84,0.00,OVC,FEW,0.57,WeatherDisplay:10.37,2013-03-25 00:59:00,
2013-03-24 19:04:00,37.6,32.9,29.67,WNW,283,8.1,8.1,83,0.00,SCT,FEW,0.57,WeatherDisplay:10.37,2013-03-25 01:04:00,
2013-03-24 19:09:00,37.6,32.6,29.67,NW,323,13.8,13.8,82,0.00,SCT,FEW,0.57,WeatherDisplay:10.37,2013-03-25 01:09:00,
2013-03-24 19:14:00,37.5,32.5,29.68,NW,304,13.8,13.8,82,0.00,SCT,FEW,0.57,WeatherDisplay:10.37,2013-03-25 01:14:00,
2013-03-24 19:19:00,37.5,32.5,29.69,SW,235,19.6,19.6,82,0.00,SCT,FEW,0.57,WeatherDisplay:10.37,2013-03-25 01:19:00,
2013-03-24 19:24:00,37.5,31.9,29.68,WNW,298,9.2,9.2,80,0.00,SCT,FEW,0.57,WeatherDisplay:10.37,2013-03-25 01:24:00,
2013-03-24 19:29:00,37.4,31.8,29.69,SW,234,19.6,19.6,80,0.00,SCT,FEW,0.57,WeatherDisplay:10.37,2013-03-25 01:29:00,
2013-03-24 19:34:00,37.2,31.9,29.69,WNW,298,10.4,10.4,81,0.00,SCT,FEW,0.57,WeatherDisplay:10.37,2013-03-25 01:34:00,
2013-03-24 19:39:00,36.9,31.6,29.70,West,269,13.8,13.8,81,0.00,-RA,FEW,0.57,WeatherDisplay:10.37,2013-03-25 01:39:00,
2013-03-24 19:44:00,36.7,31.4,29.70,WSW,252,17.3,17.3,81,0.00,-RA,FEW,0.57,WeatherDisplay:10.37,2013-03-25 01:44:00,
2013-03-24 19:49:00,36.6,31.9,29.71,West,263,10.4,10.4,83,0.00,-RA,FEW,0.57,WeatherDisplay:10.37,2013-03-25 01:49:00,
2013-03-24 19:54:00,36.4,31.7,29.71,WNW,282,21.9,21.9,83,0.00,-RA,FEW,0.57,WeatherDisplay:10.37,2013-03-25 01:54:00,
2013-03-24 19:59:00,36.4,31.7,29.72,SW,230,11.5,11.5,83,0.00,-RA,FEW,0.57,WeatherDisplay:10.37,2013-03-25 01:59:00,
2013-03-24 20:04:00,36.3,31.9,29.72,WSW,256,8.1,8.1,84,0.00,OVC,FEW,0.57,WeatherDisplay:10.37,2013-03-25 02:04:00,
2013-03-24 20:09:00,36.2,31.8,29.72,WSW,248,15.0,15.0,84,0.00,OVC,FEW,0.57,WeatherDisplay:10.37,2013-03-25 02:09:00,
2013-03-24 20:14:00,35.8,32.3,29.72,WNW,287,6.9,6.9,87,0.00,OVC,FEW,0.57,WeatherDisplay:10.37,2013-03-25 02:14:00,
2013-03-24 20:19:00,35.4,32.2,29.73,WNW,297,13.8,13.8,88,0.00,OVC,FEW,0.57,WeatherDisplay:10.37,2013-03-25 02:19:00,
2013-03-24 20:24:00,35.2,32.3,29.73,WNW,298,11.5,11.5,89,0.00,-RA,FEW,0.57,WeatherDisplay:10.37,2013-03-25 02:24:00,
2013-03-24 20:29:00,35.0,32.1,29.73,WNW,293,11.5,11.5,89,0.00,-RA,FEW,0.57,WeatherDisplay:10.37,2013-03-25 02:29:00,
2013-03-24 20:34:00,34.9,32.0,29.73,West,263,8.1,8.1,89,0.00,-RA,FEW,0.57,WeatherDisplay:10.37,2013-03-25 02:34:00,
2013-03-24 20:39:00,34.8,32.2,29.73,WNW,286,8.1,8.1,90,0.00,-RA,FEW,0.57,WeatherDisplay:10.37,2013-03-25 02:39:00,
2013-03-24 20:44:00,34.8,32.2,29.74,West,268,9.2,9.2,90,0.00,-RA,FEW,0.57,WeatherDisplay:10.37,2013-03-25 02:44:00,
2013-03-24 20:49:00,34.7,32.1,29.74,WSW,255,6.9,6.9,90,0.00,-RA,FEW,0.57,WeatherDisplay:10.37,2013-03-25 02:49:00,
2013-03-24 20:54:00,34.8,32.2,29.74,WNW,294,5.8,5.8,90,0.00,OVC,FEW,0.57,WeatherDisplay:10.37,2013-03-25 02:54:00,
2013-03-24 20:59:00,35.0,31.8,29.74,WNW,282,5.8,5.8,88,0.00,OVC,FEW,0.57,WeatherDisplay:10.37,2013-03-25 02:59:00,
2013-03-24 21:04:00,35.2,31.7,29.74,SSW,203,21.9,21.9,87,0.00,-DZ,FEW,0.57,WeatherDisplay:10.37,2013-03-25 03:04:00,
2013-03-24 21:09:00,35.3,31.8,29.74,WNW,300,10.4,10.4,87,0.00,-DZ,FEW,0.57,WeatherDisplay:10.37,2013-03-25 03:09:00,
2013-03-24 21:14:00,35.3,31.8,29.74,SSW,207,8.1,8.1,87,0.00,-DZ,FEW,0.57,WeatherDisplay:10.37,2013-03-25 03:14:00,
2013-03-24 21:19:00,35.3,31.5,29.74,West,278,12.7,12.7,86,0.00,-DZ,FEW,0.57,WeatherDisplay:10.37,2013-03-25 03:19:00,
2013-03-24 21:24:00,35.4,31.3,29.75,WSW,246,8.1,8.1,85,0.00,-DZ,FEW,0.57,WeatherDisplay:10.37,2013-03-25 03:24:00,
2013-03-24 21:29:00,35.5,31.4,29.75,WSW,251,8.6,8.6,85,0.00,-DZ,FEW,0.57,WeatherDisplay:10.37,2013-03-25 03:29:00,
2013-03-24 21:34:00,35.6,31.2,29.75,West,273,9.2,9.2,84,0.00,-DZ,FEW,0.57,WeatherDisplay:10.37,2013-03-25 03:34:00,
2013-03-24 21:39:00,35.7,31.0,29.75,WSW,256,11.5,11.5,83,0.00,OVC,FEW,0.57,WeatherDisplay:10.37,2013-03-25 03:39:00,
2013-03-24 21:44:00,35.8,31.1,29.75,West,281,6.9,7.7,83,0.00,OVC,FEW,0.57,WeatherDisplay:10.37,2013-03-25 03:44:00,
2013-03-24 21:49:00,35.9,31.2,29.75,West,278,10.7,10.7,83,0.00,OVC,FEW,0.57,WeatherDisplay:10.37,2013-03-25 03:49:00,
2013-03-24 21:54:00,36.0,30.7,29.75,West,277,17.3,17.3,81,0.00,OVC,FEW,0.57,WeatherDisplay:10.37,2013-03-25 03:54:00,
2013-03-24 21:59:00,36.0,30.7,29.76,NW,323,17.3,17.3,81,0.00,OVC,FEW,0.57,WeatherDisplay:10.37,2013-03-25 03:59:00,
2013-03-24 22:00:00,36.0,30.4,29.75,WSW,242,17.3,17.3,80,0.00,OVC,FEW,0.57,WeatherDisplay:10.37,2013-03-25 04:00:00,
2013-03-24 22:05:00,36.0,30.7,29.76,NW,305,12.7,12.7,81,0.00,BKN,FEW,0.57,WeatherDisplay:10.37,2013-03-25 04:05:00,
2013-03-24 22:10:00,36.0,30.7,29.76,WSW,242,9.2,9.2,81,0.00,BKN,FEW,0.57,WeatherDisplay:10.37,2013-03-25 04:10:00,
2013-03-24 22:15:00,36.0,31.0,29.76,WSW,238,9.2,9.2,82,0.00,BKN,FEW,0.57,WeatherDisplay:10.37,2013-03-25 04:15:00,
2013-03-24 22:21:00,35.9,30.6,29.76,WSW,250,16.1,16.1,81,0.00,-DZ,FEW,0.57,WeatherDisplay:10.37,2013-03-25 04:21:00,
2013-03-24 22:26:00,35.8,30.8,29.76,WNW,284,13.8,13.8,82,0.00,-DZ,FEW,0.57,WeatherDisplay:10.37,2013-03-25 04:26:00,
2013-03-24 22:31:00,35.7,30.7,29.77,SSE,155,13.8,13.8,82,0.00,-DZ,FEW,0.57,WeatherDisplay:10.37,2013-03-25 04:31:00,
2013-03-24 22:36:00,35.6,30.6,29.77,NW,319,13.8,13.8,82,0.00,-SN,FEW,0.57,WeatherDisplay:10.37,2013-03-25 04:36:00,
2013-03-24 22:41:00,35.6,30.6,29.77,West,260,16.1,16.1,82,0.00,-SN,FEW,0.57,WeatherDisplay:10.37,2013-03-25 04:41:00,
2013-03-24 22:46:00,35.5,30.8,29.77,WSW,240,9.2,9.2,83,0.00,-SN,FEW,0.57,WeatherDisplay:10.37,2013-03-25 04:46:00,
2013-03-24 22:51:00,35.4,30.8,29.77,SW,219,10.4,10.4,83,0.00,-SN,FEW,0.57,WeatherDisplay:10.37,2013-03-25 04:51:00,
2013-03-24 22:56:00,35.3,30.7,29.77,WSW,243,13.8,13.8,83,0.00,-SN,FEW,0.57,WeatherDisplay:10.37,2013-03-25 04:56:00,
2013-03-24 23:01:00,35.2,30.9,29.78,WSW,250,10.4,10.4,84,0.00,-SN,FEW,0.00,WeatherDisplay:10.37,2013-03-25 05:01:00,
2013-03-24 23:06:00,35.0,30.9,29.78,West,263,11.5,11.5,85,0.00,-SN,FEW,0.00,WeatherDisplay:10.37,2013-03-25 05:06:00,
2013-03-24 23:12:00,34.9,30.8,29.78,West,262,9.2,9.2,85,0.00,-SN,FEW,0.00,WeatherDisplay:10.37,2013-03-25 05:12:00,
2013-03-24 23:17:00,34.9,30.8,29.78,SSE,157,16.1,16.1,85,0.00,-SN,FEW,0.00,WeatherDisplay:10.37,2013-03-25 05:17:00,
2013-03-24 23:22:00,35.0,30.7,29.78,WSW,250,10.4,10.4,84,0.00,OVC,FEW,0.00,WeatherDisplay:10.37,2013-03-25 05:22:00,
2013-03-24 23:27:00,35.0,30.7,29.78,West,279,10.4,10.4,84,0.00,OVC,FEW,0.00,WeatherDisplay:10.37,2013-03-25 05:27:00,
2013-03-24 23:32:00,35.0,30.9,29.78,WNW,284,9.2,9.2,85,0.00,OVC,FEW,0.00,WeatherDisplay:10.37,2013-03-25 05:32:00,
2013-03-24 23:37:00,35.0,30.9,29.78,SW,231,17.3,17.3,85,0.00,OVC,FEW,0.00,WeatherDisplay:10.37,2013-03-25 05:37:00,
2013-03-24 23:42:00,34.9,30.6,29.79,West,281,16.1,16.1,84,0.00,OVC,FEW,0.00,WeatherDisplay:10.37,2013-03-25 05:42:00,
2013-03-24 23:47:00,34.9,30.3,29.79,WNW,284,15.0,15.0,83,0.00,OVC,FEW,0.00,WeatherDisplay:10.37,2013-03-25 05:47:00,
2013-03-24 23:52:00,34.9,30.3,29.79,West,277,17.3,17.3,83,0.00,OVC,FEW,0.00,WeatherDisplay:10.37,2013-03-25 05:52:00,
2013-03-24 23:57:00,34.9,30.3,29.79,WSW,257,11.5,11.5,83,0.00,OVC,FEW,0.00,WeatherDisplay:10.37,2013-03-25 05:57:00,